createdAt,value
2023-03-02T00:00:34.860Z,12.82
2023-03-02T00:02:40.715Z,12.80
2023-03-02T00:04:47.758Z,12.07
2023-03-02T00:08:53.934Z,12.75
2023-03-02T00:10:57.622Z,11.88
2023-03-02T00:13:00.586Z,12.27
2023-03-02T00:15:05.186Z,12.35
2023-03-02T00:17:08.344Z,12.38
2023-03-02T00:19:11.000Z,12.95
2023-03-02T00:21:13.697Z,11.90
2023-03-02T00:23:16.884Z,11.98
2023-03-02T00:25:20.093Z,13.20
2023-03-02T00:27:23.463Z,12.35
2023-03-02T00:29:26.268Z,12.77
2023-03-02T00:31:30.532Z,12.63
2023-03-02T00:33:33.504Z,14.02
2023-03-02T00:35:39.016Z,12.60
2023-03-02T00:37:41.816Z,13.15
2023-03-02T00:39:44.622Z,12.57
2023-03-02T00:41:48.648Z,13.43
2023-03-02T00:43:51.818Z,12.35
2023-03-02T00:45:54.784Z,13.90
2023-03-02T00:47:58.800Z,12.20
2023-03-02T00:50:02.093Z,13.48
2023-03-02T00:52:04.942Z,11.95
2023-03-02T00:54:07.645Z,13.10
2023-03-02T00:56:10.512Z,14.35
2023-03-02T00:58:13.203Z,13.40
2023-03-02T01:00:16.566Z,15.05
2023-03-02T01:02:21.525Z,12.45
2023-03-02T01:04:29.637Z,13.52
2023-03-02T01:06:32.730Z,13.35
2023-03-02T01:08:37.802Z,12.80
2023-03-02T01:10:40.899Z,13.13
2023-03-02T01:12:43.640Z,12.57
2023-03-02T01:14:48.412Z,14.30
2023-03-02T01:16:51.318Z,14.05
2023-03-02T01:18:54.058Z,12.90
2023-03-02T01:21:03.832Z,14.48
2023-03-02T01:23:06.702Z,12.27
2023-03-02T01:25:09.624Z,14.25
2023-03-02T01:27:12.736Z,13.70
2023-03-02T01:29:15.488Z,13.02
2023-03-02T01:31:18.140Z,13.57
2023-03-02T01:33:21.363Z,13.30
2023-03-02T01:35:24.140Z,11.70
2023-03-02T01:37:28.246Z,12.63
2023-03-02T01:39:33.904Z,13.07
2023-03-02T01:41:36.600Z,12.85
2023-03-02T01:43:39.901Z,14.13
2023-03-02T01:45:51.721Z,14.02
2023-03-02T01:47:54.610Z,13.45
2023-03-02T01:50:01.493Z,14.32
2023-03-02T01:52:04.542Z,13.25
2023-03-02T01:54:17.129Z,14.30
2023-03-02T01:56:25.041Z,12.25
2023-03-02T01:58:29.777Z,13.55
2023-03-02T02:00:36.406Z,13.40
2023-03-02T02:02:41.988Z,13.85
2023-03-02T02:04:48.330Z,13.73
2023-03-02T02:06:56.686Z,13.98
2023-03-02T02:09:02.253Z,13.30
2023-03-02T02:11:07.011Z,14.23
2023-03-02T02:13:11.596Z,13.95
2023-03-02T02:15:14.327Z,14.98
2023-03-02T02:17:18.659Z,14.60
2023-03-02T02:19:36.420Z,13.85
2023-03-02T02:21:39.169Z,14.57
2023-03-02T02:23:50.273Z,14.18
2023-03-02T02:26:11.504Z,14.98
2023-03-02T02:28:19.075Z,12.88
2023-03-02T02:30:23.080Z,15.82
2023-03-02T02:32:28.153Z,13.80
2023-03-02T02:34:35.555Z,14.80
2023-03-02T02:36:45.097Z,14.82
2023-03-02T02:38:51.080Z,13.55
2023-03-02T02:40:57.372Z,15.07
2023-03-02T02:43:01.620Z,14.82
2023-03-02T02:45:07.891Z,15.15
2023-03-02T02:47:18.291Z,14.57
2023-03-02T02:49:30.383Z,14.82
2023-03-02T02:51:34.418Z,15.25
2023-03-02T02:53:43.769Z,13.95
2023-03-02T02:55:48.325Z,13.38
2023-03-02T02:57:52.832Z,14.65
2023-03-02T02:59:59.749Z,14.05
2023-03-02T03:02:02.554Z,13.15
2023-03-02T03:04:07.216Z,16.02
2023-03-02T03:06:17.776Z,14.50
2023-03-02T03:08:59.056Z,14.07
2023-03-02T03:11:02.438Z,14.45
2023-03-02T03:13:05.323Z,13.75
2023-03-02T03:15:10.534Z,14.52
2023-03-02T03:17:13.927Z,14.50
2023-03-02T03:19:21.338Z,15.60
2023-03-02T03:21:24.282Z,14.00
2023-03-02T03:23:27.082Z,14.90
2023-03-02T03:25:29.776Z,13.85
2023-03-02T03:27:32.695Z,14.05
2023-03-02T03:29:37.070Z,13.95
2023-03-02T03:31:41.694Z,13.68
2023-03-02T03:33:44.722Z,14.40
2023-03-02T03:35:47.481Z,14.40
2023-03-02T03:37:51.737Z,14.52
2023-03-02T03:39:54.620Z,15.40
2023-03-02T03:41:57.471Z,15.48
2023-03-02T03:44:00.165Z,13.30
2023-03-02T03:46:02.899Z,13.73
2023-03-02T03:48:07.541Z,14.45
2023-03-02T03:50:11.393Z,13.65
2023-03-02T03:52:14.275Z,13.60
2023-03-02T03:54:17.071Z,14.02
2023-03-02T03:56:19.792Z,15.30
2023-03-02T03:58:22.521Z,13.32
2023-03-02T04:00:25.423Z,14.73
2023-03-02T04:02:28.129Z,14.75
2023-03-02T04:04:34.285Z,13.40
2023-03-02T04:06:37.117Z,14.63
2023-03-02T04:08:39.943Z,13.68
2023-03-02T04:10:43.062Z,13.38
2023-03-02T04:12:46.035Z,13.95
2023-03-02T04:14:48.783Z,14.93
2023-03-02T04:16:51.935Z,13.63
2023-03-02T04:18:54.795Z,14.32
2023-03-02T04:20:58.860Z,14.10
2023-03-02T04:27:24.631Z,13.55
2023-03-02T04:29:27.324Z,14.43
2023-03-02T04:31:31.299Z,14.88
2023-03-02T04:33:34.313Z,14.60
2023-03-02T04:35:37.047Z,16.38
2023-03-02T04:37:42.071Z,15.65
2023-03-02T04:39:51.249Z,14.40
2023-03-02T04:41:55.706Z,12.65
2023-03-02T04:43:58.500Z,13.57
2023-03-02T04:46:03.091Z,14.32
2023-03-02T04:48:06.368Z,15.13
2023-03-02T04:50:11.265Z,14.23
2023-03-02T04:52:16.934Z,15.18
2023-03-02T04:54:24.575Z,15.52
2023-03-02T04:56:27.659Z,13.90
2023-03-02T04:58:30.265Z,16.00
2023-03-02T05:00:33.978Z,15.45
2023-03-02T05:02:37.564Z,14.55
2023-03-02T05:04:42.299Z,14.27
2023-03-02T05:06:45.238Z,14.38
2023-03-02T05:08:47.908Z,13.98
2023-03-02T05:10:51.931Z,15.85
2023-03-02T05:13:01.631Z,15.38
2023-03-02T05:15:04.441Z,14.65
2023-03-02T05:17:07.025Z,16.52
2023-03-02T05:19:12.505Z,16.52
2023-03-02T05:21:16.664Z,15.23
2023-03-02T05:23:25.709Z,15.10
2023-03-02T05:25:31.329Z,17.08
2023-03-02T05:27:36.813Z,14.68
2023-03-02T05:29:39.476Z,14.25
2023-03-02T05:31:44.733Z,14.70
2023-03-02T05:33:47.730Z,17.17
2023-03-02T05:35:50.405Z,14.90
2023-03-02T05:37:53.042Z,15.15
2023-03-02T05:39:55.685Z,13.48
2023-03-02T05:42:00.123Z,14.07
2023-03-02T05:44:04.664Z,13.82
2023-03-02T05:46:07.628Z,13.45
2023-03-02T05:48:13.004Z,14.07
2023-03-02T05:50:16.031Z,13.75
2023-03-02T05:52:18.621Z,13.93
2023-03-02T05:54:21.260Z,14.05
2023-03-02T05:56:23.840Z,15.32
2023-03-02T05:58:26.461Z,15.35
2023-03-02T06:00:30.468Z,12.68
2023-03-02T06:02:33.167Z,13.07
2023-03-02T06:04:42.879Z,13.60
2023-03-02T06:06:45.552Z,15.15
2023-03-02T06:08:48.259Z,14.00
2023-03-02T06:10:51.599Z,13.85
2023-03-02T06:12:54.371Z,13.70
2023-03-02T06:14:56.987Z,14.52
2023-03-02T06:17:01.244Z,15.02
2023-03-02T06:19:04.327Z,14.23
2023-03-02T06:21:07.355Z,14.02
2023-03-02T06:23:11.342Z,14.40
2023-03-02T06:25:15.965Z,14.65
2023-03-02T06:27:18.648Z,14.38
2023-03-02T06:29:21.525Z,14.25
2023-03-02T06:31:24.134Z,13.82
2023-03-02T06:33:28.162Z,13.63
2023-03-02T06:35:30.909Z,14.93
2023-03-02T06:37:33.845Z,12.80
2023-03-02T06:39:36.517Z,12.43
2023-03-02T06:41:39.154Z,13.52
2023-03-02T06:43:41.876Z,14.32
2023-03-02T06:45:44.558Z,14.00
2023-03-02T06:47:47.198Z,14.02
2023-03-02T06:49:51.143Z,12.05
2023-03-02T06:51:53.729Z,14.52
2023-03-02T06:53:56.376Z,14.00
2023-03-02T06:55:59.058Z,15.55
2023-03-02T06:58:01.690Z,14.43
2023-03-02T07:00:10.020Z,14.02
2023-03-02T07:02:12.979Z,13.23
2023-03-02T07:04:15.577Z,13.13
2023-03-02T07:06:19.559Z,14.50
2023-03-02T07:08:22.198Z,12.57
2023-03-02T07:10:24.783Z,13.20
2023-03-02T07:12:27.377Z,13.73
2023-03-02T07:14:30.007Z,13.07
2023-03-02T07:16:35.077Z,13.50
2023-03-02T07:18:37.860Z,13.52
2023-03-02T07:20:40.546Z,12.60
2023-03-02T07:22:45.494Z,13.75
2023-03-02T07:24:48.285Z,14.00
2023-03-02T07:26:50.914Z,15.35
2023-03-02T07:28:53.490Z,13.93
2023-03-02T07:30:56.425Z,14.18
2023-03-02T07:32:59.182Z,12.95
2023-03-02T07:35:01.975Z,13.63
2023-03-02T07:37:04.725Z,13.82
2023-03-02T07:39:08.729Z,13.32
2023-03-02T07:41:12.307Z,13.80
2023-03-02T07:43:15.028Z,14.65
2023-03-02T07:45:20.199Z,13.35
2023-03-02T07:47:22.888Z,13.35
2023-03-02T07:49:25.478Z,13.00
2023-03-02T07:51:28.213Z,13.82
2023-03-02T07:53:31.021Z,13.43
2023-03-02T07:55:35.059Z,13.55
2023-03-02T07:57:37.986Z,12.20
2023-03-02T07:59:40.599Z,13.25
2023-03-02T08:01:43.272Z,12.05
2023-03-02T08:03:45.935Z,14.48
2023-03-02T08:05:48.534Z,14.77
2023-03-02T08:07:51.316Z,15.98
2023-03-02T08:09:53.996Z,12.68
2023-03-02T08:11:58.001Z,12.20
2023-03-02T08:14:01.590Z,13.75
2023-03-02T08:16:06.852Z,12.68
2023-03-02T08:18:09.516Z,12.10
2023-03-02T08:20:12.824Z,12.40
2023-03-02T08:22:15.468Z,13.27
2023-03-02T08:24:18.127Z,13.52
2023-03-02T08:26:21.658Z,12.02
2023-03-02T08:28:25.604Z,12.15
2023-03-02T08:30:28.302Z,11.70
2023-03-02T08:32:30.970Z,11.88
2023-03-02T08:34:33.570Z,11.68
2023-03-02T08:36:36.237Z,12.32
2023-03-02T08:38:38.913Z,12.30
2023-03-02T08:40:41.592Z,12.15
2023-03-02T08:42:44.253Z,12.45
2023-03-02T08:44:48.252Z,12.38
2023-03-02T08:46:51.507Z,11.50
2023-03-02T08:48:54.164Z,10.57
2023-03-02T08:50:58.164Z,12.80
2023-03-02T08:53:00.831Z,11.95
2023-03-02T08:55:04.267Z,11.75
2023-03-02T08:57:11.735Z,11.75
2023-03-02T08:59:14.642Z,12.05
2023-03-02T09:01:21.490Z,11.38
2023-03-02T09:03:24.127Z,10.57
2023-03-02T09:05:26.718Z,10.88
2023-03-02T09:07:30.760Z,11.48
2023-03-02T09:09:33.417Z,11.48
2023-03-02T09:11:36.234Z,11.40
2023-03-02T09:13:39.060Z,11.55
2023-03-02T09:15:41.705Z,11.77
2023-03-02T09:17:45.758Z,11.57
2023-03-02T09:19:48.595Z,11.43
2023-03-02T09:21:51.336Z,11.95
2023-03-02T09:23:57.900Z,10.90
2023-03-02T09:26:00.704Z,11.57
2023-03-02T09:28:03.297Z,10.55
2023-03-02T09:30:07.058Z,11.65
2023-03-02T09:32:09.744Z,11.18
2023-03-02T09:34:13.755Z,11.07
2023-03-02T09:36:23.127Z,10.80
2023-03-02T09:38:26.003Z,9.35
2023-03-02T09:40:29.530Z,11.45
2023-03-02T09:42:58.008Z,9.60
2023-03-02T09:45:19.035Z,10.25
2023-03-02T09:47:35.406Z,9.88
2023-03-02T09:49:53.714Z,10.07
2023-03-02T09:52:09.102Z,10.75
2023-03-02T09:54:14.255Z,10.50
2023-03-02T09:56:19.468Z,11.50
2023-03-02T09:58:25.576Z,11.18
2023-03-02T10:00:32.754Z,11.02
2023-03-02T10:02:39.013Z,11.35
2023-03-02T10:04:47.896Z,10.70
2023-03-02T10:06:56.846Z,10.85
2023-03-02T10:08:59.602Z,10.73
2023-03-02T10:11:10.374Z,10.88
2023-03-02T10:13:23.237Z,11.05
2023-03-02T10:15:36.694Z,10.57
2023-03-02T10:17:54.218Z,10.73
2023-03-02T10:20:04.067Z,10.20
2023-03-02T10:22:13.288Z,10.38
2023-03-02T10:24:25.494Z,11.23
2023-03-02T10:26:39.584Z,10.20
2023-03-02T10:28:49.337Z,11.13
2023-03-02T10:30:58.906Z,10.77
2023-03-02T10:33:10.614Z,11.50
2023-03-02T10:35:17.834Z,11.10
2023-03-02T10:37:24.957Z,11.57
2023-03-02T10:39:27.656Z,10.82
2023-03-02T10:41:33.972Z,12.63
2023-03-02T10:43:41.327Z,11.32
2023-03-02T10:45:43.933Z,11.65
2023-03-02T10:47:46.545Z,10.25
2023-03-02T10:49:49.729Z,10.10
2023-03-02T10:51:59.055Z,11.68
2023-03-02T10:54:06.942Z,11.10
2023-03-02T10:56:21.360Z,10.98
2023-03-02T10:58:27.532Z,11.38
2023-03-02T11:00:32.217Z,12.07
2023-03-02T11:02:37.426Z,11.52
2023-03-02T11:04:40.422Z,11.50
2023-03-02T11:06:43.171Z,10.70
2023-03-02T11:08:47.183Z,10.60
2023-03-02T11:10:58.241Z,11.60
2023-03-02T11:13:17.019Z,10.55
2023-03-02T11:15:25.521Z,11.73
2023-03-02T11:17:32.987Z,11.65
2023-03-02T11:19:38.542Z,12.07
2023-03-02T11:21:46.298Z,10.73
2023-03-02T11:24:01.467Z,10.18
2023-03-02T11:26:14.429Z,11.30
2023-03-02T11:28:27.769Z,12.02
2023-03-02T11:30:35.470Z,10.75
2023-03-02T11:32:42.872Z,10.63
2023-03-02T11:34:50.140Z,9.40
2023-03-02T11:37:02.409Z,10.32
2023-03-02T11:39:12.394Z,11.02
2023-03-02T11:41:27.279Z,11.93
2023-03-02T11:43:30.304Z,10.77
2023-03-02T11:45:37.778Z,11.38
2023-03-02T11:47:44.302Z,10.18
2023-03-02T11:49:54.764Z,10.82
2023-03-02T11:52:01.044Z,9.25
2023-03-02T11:54:12.949Z,10.95
2023-03-02T11:56:16.060Z,10.88
2023-03-02T11:58:21.390Z,10.45
2023-03-02T12:00:31.479Z,10.48
2023-03-02T12:02:34.262Z,11.70
2023-03-02T12:04:39.723Z,12.45
2023-03-02T12:06:44.047Z,10.98
2023-03-02T12:08:47.999Z,11.07
2023-03-02T12:11:00.802Z,11.48
2023-03-02T12:15:35.980Z,10.95
2023-03-02T12:17:39.667Z,11.50
2023-03-02T12:19:45.085Z,12.75
2023-03-02T12:21:58.027Z,11.45
2023-03-02T12:24:03.892Z,11.40
2023-03-02T12:26:24.153Z,11.05
2023-03-02T12:28:30.533Z,11.13
2023-03-02T12:30:33.228Z,10.85
2023-03-02T12:32:36.011Z,11.10
2023-03-02T12:34:40.321Z,11.38
2023-03-02T12:36:44.880Z,10.88
2023-03-02T12:39:01.949Z,11.45
2023-03-02T12:41:22.172Z,11.13
2023-03-02T12:43:32.036Z,11.40
2023-03-02T12:45:48.764Z,11.00
2023-03-02T12:47:59.169Z,11.80
2023-03-02T12:50:05.202Z,10.75
2023-03-02T12:52:23.884Z,12.65
2023-03-02T12:54:28.792Z,12.38
2023-03-02T12:56:32.970Z,11.13
2023-03-02T12:58:35.642Z,11.40
2023-03-02T13:00:38.266Z,12.52
2023-03-02T13:02:48.315Z,11.90
2023-03-02T13:04:55.273Z,10.55
2023-03-02T13:06:57.964Z,10.35
2023-03-02T13:09:01.083Z,11.63
2023-03-02T13:11:04.858Z,11.40
2023-03-02T13:13:17.532Z,11.32
2023-03-02T13:15:20.494Z,10.60
2023-03-02T13:17:26.162Z,10.27
2023-03-02T13:19:30.638Z,10.98
2023-03-02T13:21:38.156Z,9.85
2023-03-02T13:23:47.581Z,10.35
2023-03-02T13:25:52.547Z,10.30
2023-03-02T13:27:57.536Z,10.35
2023-03-02T13:30:13.280Z,9.82
2023-03-02T13:32:21.925Z,9.18
2023-03-02T13:34:26.141Z,9.52
2023-03-02T13:36:31.798Z,9.90
2023-03-02T13:38:38.885Z,9.40
2023-03-02T13:40:44.664Z,9.77
2023-03-02T13:42:47.405Z,10.65
2023-03-02T13:44:50.094Z,10.20
2023-03-02T13:46:54.090Z,10.57
2023-03-02T13:49:09.122Z,9.93
2023-03-02T13:51:17.946Z,10.18
2023-03-02T13:53:20.951Z,9.43
2023-03-02T13:55:24.000Z,9.10
2023-03-02T13:57:31.219Z,9.50
2023-03-02T13:59:36.450Z,9.15
2023-03-02T14:01:41.337Z,9.95
2023-03-02T14:03:45.281Z,9.93
2023-03-02T14:05:47.981Z,10.93
2023-03-02T14:07:50.901Z,10.00
2023-03-02T14:09:53.825Z,9.35
2023-03-02T14:11:57.797Z,8.75
2023-03-02T14:14:02.057Z,9.38
2023-03-02T14:16:05.355Z,10.05
2023-03-02T14:18:31.865Z,8.82
2023-03-02T14:20:35.849Z,10.55
2023-03-02T14:22:38.909Z,11.40
2023-03-02T14:24:41.562Z,11.25
2023-03-02T14:26:46.344Z,9.93
2023-03-02T14:28:53.613Z,11.27
2023-03-02T14:31:02.741Z,10.20
2023-03-02T14:33:05.415Z,10.90
2023-03-02T14:35:11.560Z,10.70
2023-03-02T14:37:18.440Z,11.02
2023-03-02T14:39:23.803Z,10.32
2023-03-02T14:41:28.369Z,11.75
2023-03-02T14:43:31.005Z,10.25
2023-03-02T14:45:33.656Z,10.90
2023-03-02T14:47:36.231Z,11.15
2023-03-02T14:49:39.313Z,10.25
2023-03-02T14:51:45.027Z,9.45
2023-03-02T14:53:50.573Z,10.90
2023-03-02T14:55:53.203Z,11.15
2023-03-02T14:57:58.890Z,9.73
2023-03-02T15:00:01.568Z,10.07
2023-03-02T15:02:15.940Z,9.48
2023-03-02T15:04:25.432Z,10.15
2023-03-02T15:06:29.968Z,10.25
2023-03-02T15:08:32.585Z,10.60
2023-03-02T15:10:36.561Z,10.05
2023-03-02T15:12:39.173Z,10.07
2023-03-02T15:14:41.819Z,10.38
2023-03-02T15:16:44.457Z,10.68
2023-03-02T15:18:49.528Z,10.38
2023-03-02T15:20:52.105Z,10.25
2023-03-02T15:22:54.839Z,11.05
2023-03-02T15:24:57.460Z,10.68
2023-03-02T15:27:01.785Z,10.70
2023-03-02T15:29:04.403Z,10.43
2023-03-02T15:31:08.347Z,10.32
2023-03-02T15:33:10.995Z,11.40
2023-03-02T15:35:13.612Z,10.75
2023-03-02T15:37:16.323Z,11.40
2023-03-02T15:39:18.981Z,9.73
2023-03-02T15:41:21.687Z,10.23
2023-03-02T15:43:25.698Z,10.63
2023-03-02T15:45:28.854Z,10.63
2023-03-02T15:47:33.413Z,11.18
2023-03-02T15:49:36.054Z,10.55
2023-03-02T15:51:38.709Z,10.18
2023-03-02T15:53:41.626Z,11.25
2023-03-02T15:55:44.354Z,10.20
2023-03-02T15:57:47.014Z,10.52
2023-03-02T15:59:51.083Z,10.30
2023-03-02T16:01:54.710Z,10.38
2023-03-02T16:04:00.034Z,10.50
2023-03-02T16:06:03.217Z,10.98
2023-03-02T16:08:06.252Z,10.60
2023-03-02T16:10:15.001Z,10.98
2023-03-02T16:12:18.606Z,11.27
2023-03-02T16:14:21.268Z,11.18
2023-03-02T16:16:26.114Z,10.32
2023-03-02T16:18:29.021Z,10.27
2023-03-02T16:20:31.647Z,10.00
2023-03-02T16:22:34.288Z,10.40
2023-03-02T16:24:37.025Z,11.00
2023-03-02T16:26:39.955Z,11.85
2023-03-02T16:28:42.927Z,11.02
2023-03-02T16:30:46.173Z,10.52
2023-03-02T16:32:50.234Z,10.90
2023-03-02T16:34:55.089Z,10.30
2023-03-02T16:36:57.726Z,10.05
2023-03-02T16:39:00.393Z,11.10
2023-03-02T16:41:03.232Z,11.40
2023-03-02T16:43:08.746Z,10.00
2023-03-02T16:45:12.099Z,10.65
2023-03-02T16:47:14.718Z,9.98
2023-03-02T16:49:18.770Z,11.20
2023-03-02T16:51:22.550Z,10.25
2023-03-02T16:53:25.528Z,10.23
2023-03-02T16:55:28.510Z,10.30
2023-03-02T16:57:31.129Z,10.52
2023-03-02T16:59:33.707Z,10.20
2023-03-02T17:01:36.515Z,9.90
2023-03-02T17:03:39.380Z,10.30
2023-03-02T17:05:43.526Z,10.88
2023-03-02T17:07:46.440Z,11.27
2023-03-02T17:09:49.132Z,10.52
2023-03-02T17:11:51.708Z,11.13
2023-03-02T17:13:54.360Z,11.35
2023-03-02T17:15:58.122Z,10.40
2023-03-02T17:18:01.204Z,12.48
2023-03-02T17:20:03.878Z,11.93
2023-03-02T17:22:07.887Z,12.10
2023-03-02T17:24:10.765Z,11.30
2023-03-02T17:26:13.434Z,11.13
2023-03-02T17:28:16.727Z,12.25
2023-03-02T17:30:20.204Z,11.75
2023-03-02T17:32:24.275Z,13.10
2023-03-02T17:34:30.532Z,12.02
2023-03-02T17:36:36.524Z,13.10
2023-03-02T17:38:41.328Z,11.93
2023-03-02T17:40:44.333Z,11.90
2023-03-02T17:42:46.976Z,12.55
2023-03-02T17:44:49.675Z,12.30
2023-03-02T17:46:52.327Z,13.63
2023-03-02T17:48:56.584Z,14.35
2023-03-02T17:50:59.242Z,14.45
2023-03-02T17:53:02.979Z,13.30
2023-03-02T17:55:08.066Z,13.25
2023-03-02T17:57:11.825Z,12.48
2023-03-02T17:59:14.706Z,12.77
2023-03-02T18:01:17.334Z,12.80
2023-03-02T18:03:20.299Z,13.60
2023-03-02T18:05:23.208Z,14.30
2023-03-02T18:07:25.928Z,13.75
2023-03-02T18:09:28.579Z,13.82
2023-03-02T18:11:33.175Z,13.73
2023-03-02T18:13:35.915Z,14.20
2023-03-02T18:15:38.587Z,14.25
2023-03-02T18:17:41.479Z,12.80
2023-03-02T18:19:45.571Z,13.63
2023-03-02T18:21:48.437Z,14.27
2023-03-02T18:23:51.094Z,13.65
2023-03-02T18:25:53.740Z,13.45
2023-03-02T18:27:57.894Z,13.75
2023-03-02T18:30:00.691Z,15.05
2023-03-02T18:32:03.423Z,14.90
2023-03-02T18:34:06.136Z,14.30
2023-03-02T18:36:09.728Z,13.20
2023-03-02T18:38:12.353Z,14.07
2023-03-02T18:40:15.494Z,13.75
2023-03-02T18:42:18.245Z,14.90
2023-03-02T18:44:22.287Z,14.93
2023-03-02T18:46:27.216Z,14.10
2023-03-02T18:48:29.941Z,13.30
2023-03-02T18:50:32.566Z,14.32
2023-03-02T18:52:35.228Z,14.48
2023-03-02T18:54:38.706Z,14.50
2023-03-02T18:56:41.415Z,14.55
2023-03-02T18:58:44.903Z,13.93
2023-03-02T19:00:49.368Z,13.73
2023-03-02T19:02:52.340Z,15.45
2023-03-02T19:04:54.966Z,13.95
2023-03-02T19:07:00.664Z,12.75
2023-03-02T19:09:03.477Z,15.18
2023-03-02T19:11:06.884Z,15.38
2023-03-02T19:13:11.505Z,13.63
2023-03-02T19:15:14.482Z,14.32
2023-03-02T19:17:18.484Z,14.18
2023-03-02T19:19:21.263Z,13.95
2023-03-02T19:21:23.965Z,14.80
2023-03-02T19:23:26.648Z,14.70
2023-03-02T19:25:29.617Z,14.93
2023-03-02T19:27:32.371Z,14.90
2023-03-02T19:29:35.071Z,14.52
2023-03-02T19:31:39.013Z,15.45
2023-03-02T19:33:45.181Z,14.57
2023-03-02T19:35:47.883Z,15.15
2023-03-02T19:37:50.654Z,14.35
2023-03-02T19:39:53.358Z,15.52
2023-03-02T19:41:56.054Z,15.70
2023-03-02T19:43:59.031Z,14.82
2023-03-02T19:46:01.782Z,15.13
2023-03-02T19:48:05.788Z,14.60
2023-03-02T19:50:11.154Z,15.32
2023-03-02T19:52:13.802Z,15.52
2023-03-02T19:54:16.505Z,16.80
2023-03-02T19:56:20.949Z,14.57
2023-03-02T19:58:23.655Z,17.23
2023-03-02T20:00:27.549Z,15.00
2023-03-02T20:02:30.334Z,15.55
2023-03-02T20:04:33.612Z,14.13
2023-03-02T20:06:38.004Z,15.35
2023-03-02T20:08:40.703Z,14.10
2023-03-02T20:10:45.341Z,16.05
2023-03-02T20:12:48.131Z,14.63
2023-03-02T20:14:52.764Z,14.52
2023-03-02T20:16:55.590Z,15.23
2023-03-02T20:19:01.934Z,14.75
2023-03-02T20:21:05.029Z,14.32
2023-03-02T20:23:09.259Z,15.10
2023-03-02T20:25:12.780Z,16.10
2023-03-02T20:27:15.656Z,16.55
2023-03-02T20:29:18.482Z,15.30
2023-03-02T20:31:21.179Z,15.57
2023-03-02T20:33:26.930Z,16.13
2023-03-02T20:35:32.715Z,16.38
2023-03-02T20:37:35.495Z,15.10
2023-03-02T20:39:41.865Z,16.02
2023-03-02T20:41:45.380Z,15.68
2023-03-02T20:43:48.090Z,15.27
2023-03-02T20:45:51.250Z,15.48
2023-03-02T20:47:54.339Z,15.95
2023-03-02T20:49:57.103Z,15.35
2023-03-02T20:52:00.787Z,16.00
2023-03-02T20:54:04.743Z,15.38
2023-03-02T20:56:11.195Z,15.48
2023-03-02T20:58:14.355Z,14.52
2023-03-02T21:00:21.604Z,15.65
2023-03-02T21:02:24.464Z,16.70
2023-03-02T21:04:27.359Z,15.68
2023-03-02T21:06:33.300Z,17.25
2023-03-02T21:08:39.236Z,14.73
2023-03-02T21:10:43.519Z,15.07
2023-03-02T21:12:49.006Z,15.70
2023-03-02T21:14:51.848Z,15.68
2023-03-02T21:16:54.985Z,15.80
2023-03-02T21:18:57.669Z,15.43
2023-03-02T21:21:00.401Z,14.63
2023-03-02T21:23:03.218Z,15.45
2023-03-02T21:25:08.914Z,17.20
2023-03-02T21:27:11.717Z,15.95
2023-03-02T21:29:17.799Z,14.80
2023-03-02T21:31:21.141Z,15.30
2023-03-02T21:33:23.790Z,16.23
2023-03-02T21:35:26.579Z,15.50
2023-03-02T21:37:29.399Z,15.82
2023-03-02T21:39:32.203Z,16.08
2023-03-02T21:41:35.659Z,14.95
2023-03-02T21:43:38.434Z,15.30
2023-03-02T21:45:42.701Z,15.48
2023-03-02T21:47:46.104Z,15.52
2023-03-02T21:49:48.746Z,15.32
2023-03-02T21:51:51.432Z,15.32
2023-03-02T21:53:54.132Z,16.60
2023-03-02T21:55:56.739Z,15.43
2023-03-02T21:57:59.849Z,15.77
2023-03-02T22:00:04.642Z,15.90
2023-03-02T22:02:08.705Z,16.00
2023-03-02T22:04:11.400Z,15.43
2023-03-02T22:06:18.184Z,14.68
2023-03-02T22:08:21.777Z,15.80
2023-03-02T22:10:30.212Z,16.52
2023-03-02T22:12:32.885Z,15.23
2023-03-02T22:14:35.526Z,15.90
2023-03-02T22:16:39.432Z,16.67
2023-03-02T22:18:45.281Z,16.45
2023-03-02T22:20:49.957Z,16.33
2023-03-02T22:22:55.101Z,15.88
2023-03-02T22:24:57.704Z,14.70
2023-03-02T22:27:02.854Z,16.92
2023-03-02T22:29:14.134Z,16.25
2023-03-02T22:31:20.329Z,17.15
2023-03-02T22:33:25.892Z,15.98
2023-03-02T22:35:29.870Z,15.07
2023-03-02T22:37:35.691Z,15.77
2023-03-02T22:39:41.002Z,15.73
2023-03-02T22:41:44.883Z,17.33
2023-03-02T22:43:49.347Z,18.05
2023-03-02T22:45:52.879Z,16.13
2023-03-02T22:47:55.671Z,17.48
2023-03-02T22:50:01.583Z,17.50
2023-03-02T22:52:13.855Z,16.45
2023-03-02T22:54:23.459Z,17.50
2023-03-02T22:56:31.286Z,18.52
2023-03-02T22:58:46.383Z,18.10
2023-03-02T23:00:49.336Z,19.73
2023-03-02T23:02:54.350Z,21.17
2023-03-02T23:04:56.979Z,17.13
2023-03-02T23:07:02.595Z,14.77
2023-03-02T23:09:07.365Z,14.73
2023-03-02T23:11:17.188Z,15.68
2023-03-02T23:13:22.310Z,15.82
2023-03-02T23:15:25.030Z,16.38
2023-03-02T23:17:35.255Z,15.80
2023-03-02T23:19:37.903Z,15.95
2023-03-02T23:21:45.683Z,15.43
2023-03-02T23:23:49.644Z,14.68
2023-03-02T23:25:53.689Z,15.38
2023-03-02T23:27:56.342Z,16.42
2023-03-02T23:29:58.962Z,15.45
2023-03-02T23:32:01.747Z,16.05
2023-03-02T23:34:05.198Z,15.88
2023-03-02T23:36:08.442Z,16.77
2023-03-02T23:38:11.012Z,15.50
2023-03-02T23:40:13.978Z,14.77
2023-03-02T23:42:17.920Z,14.77
2023-03-02T23:44:20.767Z,16.63
2023-03-02T23:46:23.694Z,16.05
2023-03-02T23:48:26.364Z,15.50
2023-03-02T23:50:29.040Z,14.63
2023-03-02T23:52:31.687Z,16.08
2023-03-02T23:54:34.406Z,16.92
2023-03-02T23:56:37.682Z,17.85
2023-03-02T23:58:41.946Z,15.85
